createdAt,value
2023-06-08T00:00:13.504Z,9.00
2023-06-08T00:01:13.380Z,7.08
2023-06-08T00:02:13.351Z,4.56
2023-06-08T00:03:13.210Z,5.60
2023-06-08T00:04:13.293Z,6.76
2023-06-08T00:05:13.464Z,12.00
2023-06-08T00:06:13.506Z,11.36
2023-06-08T00:07:13.878Z,8.60
2023-06-08T00:08:12.849Z,4.04
2023-06-08T00:09:13.839Z,1.60
2023-06-08T00:10:13.988Z,1.36
2023-06-08T00:11:12.908Z,4.36
2023-06-08T00:12:12.749Z,6.08
2023-06-08T00:13:13.782Z,3.52
2023-06-08T00:14:13.800Z,3.80
2023-06-08T00:15:13.932Z,2.80
2023-06-08T00:16:12.769Z,4.40
2023-06-08T00:17:13.931Z,3.04
2023-06-08T00:18:12.944Z,6.92
2023-06-08T00:19:13.019Z,8.12
2023-06-08T00:20:12.896Z,2.76
2023-06-08T00:21:12.776Z,5.08
2023-06-08T00:22:13.629Z,3.68
2023-06-08T00:23:13.538Z,2.80
2023-06-08T00:24:13.549Z,5.48
2023-06-08T00:25:13.429Z,4.16
2023-06-08T00:26:13.254Z,3.56
2023-06-08T00:27:13.126Z,4.24
2023-06-08T00:28:14.349Z,2.84
2023-06-08T00:29:13.456Z,0.92
2023-06-08T00:30:13.327Z,3.92
2023-06-08T00:31:13.204Z,4.76
2023-06-08T00:32:13.110Z,1.92
2023-06-08T00:33:12.986Z,2.68
2023-06-08T00:34:12.790Z,4.04
2023-06-08T00:35:13.662Z,3.24
2023-06-08T00:36:13.460Z,1.78
2023-06-08T00:37:13.348Z,1.56
2023-06-08T00:38:13.179Z,2.52
2023-06-08T00:39:13.019Z,1.36
2023-06-08T00:40:12.793Z,1.20
2023-06-08T00:41:13.731Z,5.72
2023-06-08T00:42:13.882Z,2.76
2023-06-08T00:43:13.935Z,3.16
2023-06-08T00:44:12.788Z,4.80
2023-06-08T00:45:13.677Z,2.64
2023-06-08T00:46:13.785Z,6.44
2023-06-08T00:47:15.295Z,2.76
2023-06-08T00:48:12.797Z,3.44
2023-06-08T00:49:13.632Z,5.44
2023-06-08T00:50:13.579Z,4.28
2023-06-08T00:51:13.773Z,4.24
2023-06-08T00:52:13.669Z,0.96
2023-06-08T00:53:13.624Z,4.04
2023-06-08T00:54:13.765Z,4.32
2023-06-08T00:55:13.604Z,2.84
2023-06-08T00:56:13.636Z,2.40
2023-06-08T00:57:13.784Z,5.52
2023-06-08T00:58:13.917Z,5.92
2023-06-08T00:59:13.173Z,3.80
2023-06-08T01:00:13.422Z,1.20
2023-06-08T01:01:13.728Z,8.28
2023-06-08T01:02:13.885Z,1.44
2023-06-08T01:03:13.754Z,3.24
2023-06-08T01:04:13.997Z,3.68
2023-06-08T01:05:12.834Z,3.40
2023-06-08T01:06:13.850Z,1.48
2023-06-08T01:07:13.679Z,3.52
2023-06-08T01:08:13.685Z,3.96
2023-06-08T01:09:13.664Z,4.96
2023-06-08T01:10:13.926Z,8.04
2023-06-08T01:11:13.056Z,3.64
2023-06-08T01:12:12.978Z,0.64
2023-06-08T01:13:12.831Z,4.96
2023-06-08T01:14:13.683Z,2.12
2023-06-08T01:15:13.717Z,4.64
2023-06-08T01:16:13.567Z,2.72
2023-06-08T01:17:13.373Z,4.80
2023-06-08T01:18:13.251Z,3.80
2023-06-08T01:19:13.397Z,1.84
2023-06-08T01:20:13.470Z,0.12
2023-06-08T01:21:13.226Z,2.92
2023-06-08T01:22:13.362Z,7.36
2023-06-08T01:23:13.244Z,4.48
2023-06-08T01:24:13.728Z,0.96
2023-06-08T01:25:12.897Z,1.08
2023-06-08T01:26:12.836Z,0.60
2023-06-08T01:27:13.745Z,4.60
2023-06-08T01:28:13.849Z,1.08
2023-06-08T01:29:12.880Z,2.04
2023-06-08T01:30:12.764Z,6.80
2023-06-08T01:31:13.673Z,3.04
2023-06-08T01:32:13.762Z,2.20
2023-06-08T01:33:13.999Z,4.68
2023-06-08T01:34:12.883Z,8.72
2023-06-08T01:35:13.750Z,4.80
2023-06-08T01:36:13.613Z,3.52
2023-06-08T01:37:13.354Z,0.72
2023-06-08T01:38:13.231Z,3.80
2023-06-08T01:39:13.055Z,6.08
2023-06-08T01:40:12.877Z,5.04
2023-06-08T01:41:13.634Z,3.84
2023-06-08T01:42:13.506Z,5.96
2023-06-08T01:43:13.436Z,4.04
2023-06-08T01:44:13.205Z,7.16
2023-06-08T01:45:13.201Z,8.68
2023-06-08T01:46:13.135Z,3.76
2023-06-08T01:47:13.239Z,4.28
2023-06-08T01:48:13.065Z,2.72
2023-06-08T01:49:12.792Z,6.36
2023-06-08T01:50:13.574Z,3.24
2023-06-08T01:51:13.660Z,4.52
2023-06-08T01:52:13.651Z,6.88
2023-06-08T01:53:13.486Z,6.04
2023-06-08T01:54:13.645Z,5.36
2023-06-08T01:55:13.415Z,9.60
2023-06-08T01:56:13.526Z,9.00
2023-06-08T01:57:13.659Z,4.76
2023-06-08T01:58:13.606Z,4.32
2023-06-08T01:59:13.762Z,1.92
2023-06-08T02:00:13.559Z,5.16
2023-06-08T02:01:13.629Z,5.64
2023-06-08T02:02:13.566Z,1.96
2023-06-08T02:03:13.415Z,7.00
2023-06-08T02:04:13.361Z,5.56
2023-06-08T02:05:13.139Z,2.20
2023-06-08T02:06:13.000Z,3.00
2023-06-08T02:07:12.840Z,6.32
2023-06-08T02:08:13.814Z,4.72
2023-06-08T02:09:13.658Z,6.44
2023-06-08T02:10:13.515Z,1.28
2023-06-08T02:11:13.386Z,4.12
2023-06-08T02:12:13.448Z,1.28
2023-06-08T02:13:13.195Z,7.68
2023-06-08T02:14:13.034Z,6.12
2023-06-08T02:15:12.810Z,1.28
2023-06-08T02:16:13.758Z,1.08
2023-06-08T02:17:13.675Z,3.88
2023-06-08T02:18:13.678Z,7.24
2023-06-08T02:19:13.540Z,0.36
2023-06-08T02:20:13.367Z,1.56
2023-06-08T02:21:13.493Z,0.52
2023-06-08T02:22:13.606Z,0.24
2023-06-08T02:23:14.054Z,0.28
2023-06-08T02:24:13.343Z,1.52
2023-06-08T02:25:13.239Z,0.08
2023-06-08T02:26:13.149Z,0.76
2023-06-08T02:27:13.024Z,0.00
2023-06-08T02:28:13.156Z,0.00
2023-06-08T02:29:12.975Z,1.44
2023-06-08T02:30:13.284Z,0.68
2023-06-08T02:31:13.318Z,0.00
2023-06-08T02:32:13.125Z,0.20
2023-06-08T02:33:13.055Z,2.64
2023-06-08T02:34:13.696Z,0.36
2023-06-08T02:35:13.726Z,2.96
2023-06-08T02:36:14.015Z,1.60
2023-06-08T02:37:13.043Z,2.12
2023-06-08T02:38:12.989Z,0.76
2023-06-08T02:39:13.283Z,0.00
2023-06-08T02:40:13.083Z,0.00
2023-06-08T02:41:12.997Z,0.00
2023-06-08T02:42:13.132Z,1.20
2023-06-08T02:43:12.940Z,0.44
2023-06-08T02:44:12.748Z,1.40
2023-06-08T02:45:13.530Z,0.68
2023-06-08T02:46:13.546Z,2.32
2023-06-08T02:47:13.630Z,2.88
2023-06-08T02:48:13.570Z,4.04
2023-06-08T02:49:13.333Z,2.76
2023-06-08T02:50:13.188Z,3.24
2023-06-08T02:51:12.990Z,4.36
2023-06-08T02:52:12.702Z,2.56
2023-06-08T02:53:13.461Z,1.64
2023-06-08T02:54:13.166Z,2.00
2023-06-08T02:55:12.900Z,1.56
2023-06-08T02:56:12.749Z,2.08
2023-06-08T02:57:18.580Z,2.56
2023-06-08T02:58:13.481Z,2.40
2023-06-08T02:59:13.487Z,2.60
2023-06-08T03:00:13.526Z,2.04
2023-06-08T03:01:20.983Z,2.72
2023-06-08T03:02:13.369Z,3.48
2023-06-08T03:03:13.681Z,2.00
2023-06-08T03:04:13.744Z,1.56
2023-06-08T03:05:13.820Z,0.80
2023-06-08T03:06:13.620Z,2.36
2023-06-08T03:07:13.405Z,2.64
2023-06-08T03:08:13.195Z,1.36
2023-06-08T03:09:13.400Z,2.48
2023-06-08T03:10:13.311Z,0.96
2023-06-08T03:11:13.039Z,0.72
2023-06-08T03:12:13.511Z,1.36
2023-06-08T03:13:13.825Z,0.84
2023-06-08T03:14:13.859Z,1.40
2023-06-08T03:15:13.942Z,4.20
2023-06-08T03:16:12.839Z,1.56
2023-06-08T03:17:13.644Z,2.12
2023-06-08T03:18:13.418Z,2.12
2023-06-08T03:19:13.161Z,0.68
2023-06-08T03:20:12.953Z,3.40
2023-06-08T03:21:12.937Z,1.84
2023-06-08T03:22:12.829Z,5.48
2023-06-08T03:23:13.661Z,2.48
2023-06-08T03:24:13.502Z,3.16
2023-06-08T03:25:13.319Z,4.64
2023-06-08T03:26:13.065Z,3.40
2023-06-08T03:27:12.878Z,2.04
2023-06-08T03:28:13.650Z,0.56
2023-06-08T03:29:13.878Z,3.40
2023-06-08T03:30:14.456Z,4.08
2023-06-08T03:31:13.810Z,3.80
2023-06-08T03:32:13.694Z,3.12
2023-06-08T03:33:13.437Z,5.96
2023-06-08T03:34:13.227Z,2.32
2023-06-08T03:35:13.313Z,1.64
2023-06-08T03:36:13.131Z,3.08
2023-06-08T03:37:12.981Z,3.52
2023-06-08T03:38:12.802Z,3.20
2023-06-08T03:39:13.916Z,0.64
2023-06-08T03:40:12.822Z,0.84
2023-06-08T03:41:13.623Z,3.24
2023-06-08T03:42:13.592Z,2.48
2023-06-08T03:43:13.591Z,2.16
2023-06-08T03:44:13.593Z,3.08
2023-06-08T03:45:13.419Z,3.00
2023-06-08T03:46:13.388Z,2.04
2023-06-08T03:47:13.241Z,0.88
2023-06-08T03:48:13.300Z,1.72
2023-06-08T03:49:13.175Z,2.72
2023-06-08T03:50:13.233Z,4.08
2023-06-08T03:51:13.416Z,4.92
2023-06-08T03:52:13.363Z,2.80
2023-06-08T03:53:13.185Z,2.88
2023-06-08T03:54:13.097Z,3.44
2023-06-08T03:55:12.922Z,1.68
2023-06-08T03:56:12.831Z,3.72
2023-06-08T03:57:13.709Z,3.76
2023-06-08T03:58:13.432Z,3.12
2023-06-08T03:59:14.391Z,4.00
2023-06-08T04:00:13.564Z,1.96
2023-06-08T04:01:13.506Z,2.60
2023-06-08T04:02:13.683Z,3.20
2023-06-08T04:03:13.911Z,3.80
2023-06-08T04:04:13.032Z,1.88
2023-06-08T04:05:12.884Z,2.28
2023-06-08T04:06:13.988Z,4.84
2023-06-08T04:07:13.094Z,2.56
2023-06-08T04:08:13.014Z,5.52
2023-06-08T04:09:13.118Z,2.52
2023-06-08T04:10:13.085Z,1.80
2023-06-08T04:11:12.878Z,2.40
2023-06-08T04:12:13.946Z,4.60
2023-06-08T04:13:12.755Z,4.16
2023-06-08T04:14:13.610Z,5.20
2023-06-08T04:15:13.432Z,3.40
2023-06-08T04:16:13.263Z,4.40
2023-06-08T04:17:13.228Z,3.48
2023-06-08T04:18:13.001Z,3.56
2023-06-08T04:19:13.126Z,1.92
2023-06-08T04:20:12.969Z,5.52
2023-06-08T04:21:13.000Z,5.16
2023-06-08T04:22:12.949Z,5.52
2023-06-08T04:23:14.001Z,0.60
2023-06-08T04:24:12.902Z,0.12
2023-06-08T04:25:13.004Z,2.28
2023-06-08T04:26:12.781Z,2.80
2023-06-08T04:27:13.676Z,2.36
2023-06-08T04:28:13.568Z,0.12
2023-06-08T04:29:13.516Z,0.36
2023-06-08T04:30:13.449Z,2.56
2023-06-08T04:31:13.404Z,1.16
2023-06-08T04:32:14.382Z,1.56
2023-06-08T04:33:13.342Z,2.80
2023-06-08T04:34:13.312Z,0.04
2023-06-08T04:35:13.252Z,2.92
2023-06-08T04:36:13.198Z,3.80
2023-06-08T04:37:12.984Z,3.64
2023-06-08T04:38:14.556Z,4.00
2023-06-08T04:39:13.629Z,4.16
2023-06-08T04:40:13.433Z,3.60
2023-06-08T04:41:13.658Z,4.84
2023-06-08T04:42:13.467Z,2.36
2023-06-08T04:43:13.341Z,4.48
2023-06-08T04:44:13.340Z,0.96
2023-06-08T04:45:13.234Z,4.32
2023-06-08T04:46:13.101Z,3.36
2023-06-08T04:47:13.088Z,2.20
2023-06-08T04:48:13.034Z,4.48
2023-06-08T04:49:12.757Z,3.00
2023-06-08T04:50:13.785Z,2.64
2023-06-08T04:51:13.705Z,2.56
2023-06-08T04:52:13.682Z,0.80
2023-06-08T04:53:13.673Z,1.64
2023-06-08T04:54:13.697Z,0.20
2023-06-08T04:55:13.678Z,0.00
2023-06-08T04:56:13.500Z,0.00
2023-06-08T04:57:13.399Z,0.36
2023-06-08T04:58:13.417Z,0.00
2023-06-08T04:59:13.329Z,0.00
2023-06-08T05:00:13.130Z,1.28
2023-06-08T05:01:13.045Z,0.40
2023-06-08T05:02:12.922Z,0.80
2023-06-08T05:03:12.954Z,1.08
2023-06-08T05:04:13.020Z,1.00
2023-06-08T05:05:12.870Z,1.00
2023-06-08T05:06:13.809Z,1.84
2023-06-08T05:07:13.610Z,1.20
2023-06-08T05:08:13.431Z,4.00
2023-06-08T05:09:13.229Z,4.16
2023-06-08T05:10:13.277Z,1.68
2023-06-08T05:11:13.333Z,5.04
2023-06-08T05:12:13.094Z,3.84
2023-06-08T05:13:12.958Z,0.96
2023-06-08T05:14:12.737Z,1.56
2023-06-08T05:15:13.793Z,1.16
2023-06-08T05:16:13.879Z,4.88
2023-06-08T05:17:12.912Z,6.28
2023-06-08T05:18:12.898Z,3.52
2023-06-08T05:19:12.807Z,2.16
2023-06-08T05:20:13.787Z,2.56
2023-06-08T05:21:13.692Z,2.36
2023-06-08T05:22:13.445Z,0.60
2023-06-08T05:23:13.565Z,3.20
2023-06-08T05:24:13.508Z,1.96
2023-06-08T05:25:13.511Z,1.92
2023-06-08T05:26:13.401Z,3.76
2023-06-08T05:27:13.737Z,5.28
2023-06-08T05:28:13.725Z,3.84
2023-06-08T05:29:13.817Z,2.60
2023-06-08T05:30:13.717Z,2.44
2023-06-08T05:31:13.668Z,4.88
2023-06-08T05:32:13.544Z,4.04
2023-06-08T05:33:13.821Z,3.56
2023-06-08T05:34:14.129Z,3.28
2023-06-08T05:35:13.080Z,3.44
2023-06-08T05:36:12.866Z,13.96
2023-06-08T05:37:13.790Z,6.92
2023-06-08T05:38:13.630Z,10.88
2023-06-08T05:39:13.676Z,8.60
2023-06-08T05:40:13.506Z,5.20
2023-06-08T05:41:13.312Z,13.08
2023-06-08T05:42:13.096Z,6.64
2023-06-08T05:43:12.868Z,1.28
2023-06-08T05:44:12.711Z,3.08
2023-06-08T05:45:13.605Z,7.40
2023-06-08T05:46:13.336Z,8.52
2023-06-08T05:47:13.248Z,0.36
2023-06-08T05:48:13.211Z,6.96
2023-06-08T05:49:13.236Z,4.52
2023-06-08T05:50:13.230Z,0.52
2023-06-08T05:51:13.160Z,5.96
2023-06-08T05:52:13.285Z,6.16
2023-06-08T05:53:13.051Z,7.76
2023-06-08T05:54:12.853Z,11.88
2023-06-08T05:55:13.816Z,5.24
2023-06-08T05:56:13.618Z,9.52
2023-06-08T05:57:13.470Z,9.00
2023-06-08T05:58:13.390Z,9.12
2023-06-08T05:59:13.322Z,3.20
2023-06-08T06:00:13.389Z,13.48
2023-06-08T06:01:13.542Z,8.04
2023-06-08T06:02:13.433Z,9.36
2023-06-08T06:03:13.366Z,13.84
2023-06-08T06:04:26.250Z,13.16
2023-06-08T06:05:13.588Z,9.20
2023-06-08T06:06:13.641Z,10.16
2023-06-08T06:07:13.652Z,7.20
2023-06-08T06:08:13.380Z,10.56
2023-06-08T06:09:13.344Z,9.84
2023-06-08T06:10:13.251Z,4.76
2023-06-08T06:11:13.218Z,6.52
2023-06-08T06:12:13.355Z,12.96
2023-06-08T06:13:13.222Z,14.92
2023-06-08T06:14:13.220Z,14.64
2023-06-08T06:15:13.041Z,9.72
2023-06-08T06:16:15.699Z,9.08
2023-06-08T06:17:13.300Z,12.00
2023-06-08T06:18:13.352Z,4.84
2023-06-08T06:19:13.063Z,6.20
2023-06-08T06:20:12.908Z,2.92
2023-06-08T06:21:12.730Z,5.16
2023-06-08T06:22:13.635Z,3.40
2023-06-08T06:23:13.635Z,5.16
2023-06-08T06:24:13.912Z,5.60
2023-06-08T06:25:12.795Z,13.84
2023-06-08T06:26:13.643Z,9.12
2023-06-08T06:27:13.470Z,6.48
2023-06-08T06:28:13.268Z,8.32
2023-06-08T06:29:13.718Z,9.56
2023-06-08T06:30:13.558Z,16.08
2023-06-08T06:31:13.535Z,14.44
2023-06-08T06:32:13.602Z,9.72
2023-06-08T06:33:13.715Z,7.44
2023-06-08T06:34:13.730Z,6.52
2023-06-08T06:35:13.609Z,11.44
2023-06-08T06:36:13.572Z,16.00
2023-06-08T06:37:13.646Z,9.04
2023-06-08T06:38:13.912Z,10.36
2023-06-08T06:39:12.645Z,12.04
2023-06-08T06:40:13.606Z,4.48
2023-06-08T06:41:13.364Z,4.32
2023-06-08T06:42:13.235Z,4.12
2023-06-08T06:43:13.039Z,2.72
2023-06-08T06:44:13.028Z,8.12
2023-06-08T06:45:12.795Z,11.20
2023-06-08T06:46:13.619Z,7.76
2023-06-08T06:47:13.620Z,12.56
2023-06-08T06:48:13.505Z,20.08
2023-06-08T06:49:13.442Z,14.80
2023-06-08T06:50:13.340Z,10.24
2023-06-08T06:51:13.292Z,12.24
2023-06-08T06:52:13.119Z,12.52
2023-06-08T06:53:13.022Z,7.52
2023-06-08T06:54:12.828Z,14.72
2023-06-08T06:55:13.703Z,6.36
2023-06-08T06:56:13.518Z,8.72
2023-06-08T06:57:13.359Z,9.32
2023-06-08T06:58:13.498Z,6.04
2023-06-08T06:59:13.261Z,2.32
2023-06-08T07:00:13.140Z,5.24
2023-06-08T07:01:13.295Z,3.96
2023-06-08T07:02:13.176Z,5.92
2023-06-08T07:03:13.228Z,4.28
2023-06-08T07:04:13.301Z,4.88
2023-06-08T07:05:13.323Z,4.68
2023-06-08T07:06:13.438Z,5.12
2023-06-08T07:07:13.773Z,8.28
2023-06-08T07:08:14.055Z,7.24
2023-06-08T07:09:12.965Z,8.40
2023-06-08T07:10:12.986Z,10.40
2023-06-08T07:11:12.918Z,12.12
2023-06-08T07:12:15.622Z,3.36
2023-06-08T07:13:13.553Z,3.88
2023-06-08T07:14:13.420Z,1.24
2023-06-08T07:15:13.185Z,2.48
2023-06-08T07:16:13.021Z,3.20
2023-06-08T07:17:13.213Z,6.40
2023-06-08T07:18:13.080Z,8.00
2023-06-08T07:19:12.984Z,5.36
2023-06-08T07:20:13.210Z,11.08
2023-06-08T07:21:13.464Z,4.24
2023-06-08T07:22:21.185Z,8.88
2023-06-08T07:23:28.904Z,9.56
2023-06-08T07:25:12.042Z,15.68
2023-06-08T07:25:43.982Z,8.48
2023-06-08T07:26:29.956Z,12.64
2023-06-08T07:27:12.899Z,16.08
2023-06-08T07:28:12.830Z,11.16
2023-06-08T07:29:13.798Z,12.76
2023-06-08T07:30:13.584Z,6.44
2023-06-08T07:31:13.584Z,4.72
2023-06-08T07:32:13.542Z,5.36
2023-06-08T07:33:13.535Z,5.96
2023-06-08T07:34:13.548Z,10.28
2023-06-08T07:35:13.289Z,8.96
2023-06-08T07:36:13.383Z,6.04
2023-06-08T07:37:13.291Z,1.48
2023-06-08T07:38:13.134Z,5.28
2023-06-08T07:39:12.958Z,3.92
2023-06-08T07:40:13.072Z,7.20
2023-06-08T07:41:13.259Z,7.72
2023-06-08T07:42:13.516Z,8.44
2023-06-08T07:43:13.386Z,5.88
2023-06-08T07:44:13.428Z,4.84
2023-06-08T07:45:13.253Z,7.96
2023-06-08T07:46:13.051Z,7.72
2023-06-08T07:47:13.005Z,13.80
2023-06-08T07:48:12.972Z,13.84
2023-06-08T07:49:12.726Z,18.92
2023-06-08T07:50:13.684Z,18.60
2023-06-08T07:51:13.659Z,18.92
2023-06-08T07:52:13.465Z,14.72
2023-06-08T07:53:13.304Z,13.44
2023-06-08T07:54:13.174Z,10.92
2023-06-08T07:55:12.985Z,17.16
2023-06-08T07:56:13.094Z,14.16
2023-06-08T07:57:13.298Z,4.08
2023-06-08T07:58:13.392Z,13.28
2023-06-08T07:59:13.283Z,16.20
2023-06-08T08:00:13.247Z,13.68
2023-06-08T08:01:13.021Z,8.40
2023-06-08T08:02:13.056Z,5.60
2023-06-08T08:03:13.242Z,6.84
2023-06-08T08:04:13.241Z,7.12
2023-06-08T08:05:13.260Z,5.28
2023-06-08T08:06:13.119Z,2.96
2023-06-08T08:07:12.929Z,3.96
2023-06-08T08:08:12.744Z,6.80
2023-06-08T08:09:13.465Z,10.52
2023-06-08T08:10:13.531Z,8.56
2023-06-08T08:11:13.567Z,5.80
2023-06-08T08:12:13.626Z,5.80
2023-06-08T08:13:13.419Z,4.64
2023-06-08T08:14:13.254Z,5.16
2023-06-08T08:15:13.158Z,6.56
2023-06-08T08:16:13.335Z,6.24
2023-06-08T08:17:13.231Z,5.00
2023-06-08T08:18:13.160Z,1.72
2023-06-08T08:19:13.156Z,5.64
2023-06-08T08:20:12.984Z,4.24
2023-06-08T08:21:12.940Z,7.96
2023-06-08T08:22:15.211Z,15.88
2023-06-08T08:23:13.380Z,5.72
2023-06-08T08:24:13.299Z,6.40
2023-06-08T08:25:13.103Z,5.80
2023-06-08T08:26:13.053Z,5.36
2023-06-08T08:27:12.856Z,7.80
2023-06-08T08:28:13.946Z,13.24
2023-06-08T08:29:12.735Z,16.20
2023-06-08T08:30:13.670Z,13.64
2023-06-08T08:31:13.793Z,2.80
2023-06-08T08:32:13.607Z,7.96
2023-06-08T08:33:16.534Z,12.76
2023-06-08T08:34:13.425Z,7.04
2023-06-08T08:35:13.270Z,8.48
2023-06-08T08:36:13.093Z,4.12
2023-06-08T08:37:12.889Z,3.72
2023-06-08T08:38:13.001Z,7.36
2023-06-08T08:39:13.021Z,1.20
2023-06-08T08:40:13.214Z,3.84
2023-06-08T08:41:13.343Z,7.12
2023-06-08T08:42:13.235Z,11.00
2023-06-08T08:43:13.242Z,26.84
2023-06-08T08:44:13.183Z,22.28
2023-06-08T08:45:13.042Z,13.52
2023-06-08T08:46:12.997Z,19.40
2023-06-08T08:47:12.892Z,4.24
2023-06-08T08:48:12.983Z,14.60
2023-06-08T08:49:13.167Z,23.48
2023-06-08T08:50:13.272Z,22.63
2023-06-08T08:51:13.066Z,15.12
2023-06-08T08:52:13.615Z,10.60
2023-06-08T08:53:13.606Z,19.52
2023-06-08T08:54:13.812Z,6.08
2023-06-08T08:55:25.921Z,13.20
2023-06-08T08:56:13.164Z,5.92
2023-06-08T08:57:12.971Z,19.24
2023-06-08T08:58:12.807Z,7.52
2023-06-08T08:59:13.637Z,0.92
2023-06-08T09:00:13.524Z,0.36
2023-06-08T09:01:13.509Z,7.04
2023-06-08T09:02:13.568Z,4.16
2023-06-08T09:03:13.492Z,9.40
2023-06-08T09:04:13.555Z,21.36
2023-06-08T09:05:13.502Z,6.04
2023-06-08T09:06:13.304Z,13.72
2023-06-08T09:07:13.450Z,21.24
2023-06-08T09:08:13.212Z,18.36
2023-06-08T09:09:13.137Z,7.64
2023-06-08T09:10:13.056Z,13.36
2023-06-08T09:11:12.901Z,24.92
2023-06-08T09:12:13.911Z,11.32
2023-06-08T09:13:12.968Z,14.48
2023-06-08T09:14:12.924Z,11.52
2023-06-08T09:15:17.893Z,16.44
2023-06-08T09:16:12.712Z,20.12
2023-06-08T09:17:15.528Z,21.36
2023-06-08T09:18:13.458Z,9.44
2023-06-08T09:19:13.428Z,17.12
2023-06-08T09:20:13.292Z,12.84
2023-06-08T09:21:18.285Z,10.00
2023-06-08T09:22:13.053Z,8.04
2023-06-08T09:23:12.966Z,8.24
2023-06-08T09:24:13.045Z,4.64
2023-06-08T09:25:13.203Z,11.92
2023-06-08T09:26:13.112Z,20.24
2023-06-08T09:27:12.950Z,18.16
2023-06-08T09:28:12.834Z,20.76
2023-06-08T09:29:13.859Z,22.04
2023-06-08T09:30:47.994Z,22.20
2023-06-08T09:31:00.297Z,13.80
2023-06-08T09:31:17.289Z,16.80
2023-06-08T09:32:13.327Z,17.48
2023-06-08T09:33:13.345Z,18.08
2023-06-08T09:34:13.332Z,11.76
2023-06-08T09:35:13.275Z,1.00
2023-06-08T09:36:13.194Z,14.20
2023-06-08T09:37:13.303Z,7.44
2023-06-08T09:38:13.320Z,10.56
2023-06-08T09:39:13.336Z,20.88
2023-06-08T09:40:13.185Z,11.08
2023-06-08T09:41:13.189Z,10.16
2023-06-08T09:42:13.200Z,13.84
2023-06-08T09:43:13.329Z,8.80
2023-06-08T09:44:13.696Z,18.48
2023-06-08T09:45:13.662Z,3.60
2023-06-08T09:46:13.464Z,3.68
2023-06-08T09:47:13.427Z,5.92
2023-06-08T09:48:13.391Z,10.56
2023-06-08T09:49:13.281Z,5.68
2023-06-08T09:50:13.307Z,12.56
2023-06-08T09:51:13.104Z,24.24
2023-06-08T09:52:13.135Z,18.36
2023-06-08T09:53:13.114Z,9.08
2023-06-08T09:54:12.911Z,7.24
2023-06-08T09:55:12.969Z,5.24
2023-06-08T09:56:12.748Z,14.80
2023-06-08T09:57:13.693Z,9.12
2023-06-08T09:58:13.442Z,9.04
2023-06-08T09:59:13.280Z,26.20
2023-06-08T10:00:13.329Z,11.80
2023-06-08T10:01:13.542Z,12.92
2023-06-08T10:02:13.542Z,15.60
2023-06-08T10:03:13.735Z,14.52
2023-06-08T10:04:14.689Z,18.08
2023-06-08T10:05:13.510Z,15.76
2023-06-08T10:06:13.287Z,23.48
2023-06-08T10:07:13.106Z,20.60
2023-06-08T10:08:12.933Z,18.32
2023-06-08T10:09:12.985Z,14.32
2023-06-08T10:10:12.953Z,16.32
2023-06-08T10:11:12.837Z,9.00
2023-06-08T10:12:13.956Z,7.80
2023-06-08T10:13:12.976Z,6.84
2023-06-08T10:14:12.878Z,1.92
2023-06-08T10:15:13.748Z,14.96
2023-06-08T10:16:13.692Z,11.56
2023-06-08T10:17:13.772Z,27.40
2023-06-08T10:18:23.797Z,24.12
2023-06-08T10:20:14.595Z,34.00
2023-06-08T10:21:13.640Z,32.36
2023-06-08T10:22:13.427Z,15.20
2023-06-08T10:23:13.204Z,11.56
2023-06-08T10:24:13.544Z,14.32
2023-06-08T10:25:13.942Z,6.40
2023-06-08T10:26:13.383Z,13.04
2023-06-08T10:27:13.580Z,8.00
2023-06-08T10:28:13.801Z,7.76
2023-06-08T10:29:21.657Z,17.12
2023-06-08T10:30:13.211Z,23.96
2023-06-08T10:31:13.222Z,14.00
2023-06-08T10:32:13.063Z,12.60
2023-06-08T10:33:12.943Z,11.40
2023-06-08T10:34:12.956Z,19.24
2023-06-08T10:35:12.862Z,23.76
2023-06-08T10:36:13.801Z,28.20
2023-06-08T10:37:13.664Z,20.88
2023-06-08T10:38:13.548Z,20.44
2023-06-08T10:39:13.601Z,47.72
2023-06-08T10:40:13.373Z,24.60
2023-06-08T10:41:13.184Z,24.08
2023-06-08T10:42:13.324Z,16.80
2023-06-08T10:43:33.695Z,20.40
2023-06-08T10:44:12.907Z,29.08
2023-06-08T10:45:12.638Z,18.36
2023-06-08T10:46:13.490Z,7.08
2023-06-08T10:47:13.489Z,17.36
2023-06-08T10:48:13.371Z,13.36
2023-06-08T10:49:13.356Z,12.64
2023-06-08T10:50:13.406Z,18.20
2023-06-08T10:51:13.308Z,12.76
2023-06-08T10:52:13.208Z,12.52
2023-06-08T10:53:13.338Z,14.24
2023-06-08T10:54:13.329Z,40.20
2023-06-08T10:55:13.140Z,26.28
2023-06-08T10:56:13.161Z,13.40
2023-06-08T10:57:15.523Z,25.76
2023-06-08T10:58:13.532Z,11.68
2023-06-08T10:59:13.397Z,28.96
2023-06-08T11:00:14.454Z,25.72
2023-06-08T11:01:13.323Z,20.80
2023-06-08T11:02:13.592Z,8.92
2023-06-08T11:03:13.564Z,13.24
2023-06-08T11:04:18.210Z,8.84
2023-06-08T11:05:13.255Z,5.68
2023-06-08T11:06:13.383Z,13.04
2023-06-08T11:07:13.163Z,29.32
2023-06-08T11:08:13.017Z,20.88
2023-06-08T11:09:13.475Z,25.40
2023-06-08T11:10:13.520Z,18.32
2023-06-08T11:11:13.509Z,12.56
2023-06-08T11:12:13.277Z,5.40
2023-06-08T11:13:13.064Z,4.80
2023-06-08T11:14:13.277Z,9.84
2023-06-08T11:15:13.214Z,22.48
2023-06-08T11:16:14.077Z,7.40
2023-06-08T11:17:12.891Z,6.96
2023-06-08T11:18:12.888Z,17.28
2023-06-08T11:19:12.672Z,13.00
2023-06-08T11:20:13.490Z,25.24
2023-06-08T11:21:13.341Z,16.24
2023-06-08T11:22:13.119Z,20.80
2023-06-08T11:23:13.032Z,14.16
2023-06-08T11:24:12.841Z,3.52
2023-06-08T11:25:12.896Z,5.56
2023-06-08T11:26:12.619Z,11.84
2023-06-08T11:27:13.400Z,17.08
2023-06-08T11:28:13.197Z,27.40
2023-06-08T11:29:13.259Z,14.40
2023-06-08T11:30:18.246Z,24.54
2023-06-08T11:31:13.299Z,16.48
2023-06-08T11:32:13.284Z,19.88
2023-06-08T11:33:23.917Z,18.00
2023-06-08T11:34:38.536Z,20.72
2023-06-08T11:35:20.125Z,20.88
2023-06-08T11:40:12.969Z,25.44
2023-06-08T11:41:12.721Z,28.52
2023-06-08T11:42:13.806Z,15.00
2023-06-08T11:43:13.669Z,16.52
2023-06-08T11:44:13.487Z,22.36
2023-06-08T11:45:13.419Z,21.84
2023-06-08T11:46:13.305Z,12.16
2023-06-08T11:47:13.266Z,12.52
2023-06-08T11:48:17.318Z,3.36
2023-06-08T11:49:13.570Z,11.56
2023-06-08T11:50:13.501Z,29.80
2023-06-08T11:51:13.800Z,25.92
2023-06-08T11:52:13.769Z,16.08
2023-06-08T11:53:13.871Z,18.16
2023-06-08T11:54:13.683Z,23.72
2023-06-08T11:55:14.172Z,26.22
2023-06-08T11:56:13.121Z,14.40
2023-06-08T11:57:12.940Z,26.60
2023-06-08T11:58:12.865Z,31.56
2023-06-08T11:59:13.680Z,16.56
2023-06-08T12:00:13.649Z,15.48
2023-06-08T12:01:23.527Z,6.96
2023-06-08T12:02:13.398Z,31.20
2023-06-08T12:03:13.368Z,24.00
2023-06-08T12:04:13.739Z,22.04
2023-06-08T12:05:13.733Z,13.20
2023-06-08T12:06:13.613Z,27.20
2023-06-08T12:07:13.551Z,24.52
2023-06-08T12:08:13.384Z,27.32
2023-06-08T12:09:13.369Z,28.04
2023-06-08T12:10:13.185Z,13.16
2023-06-08T12:11:12.995Z,8.67
2023-06-08T12:12:13.266Z,24.56
2023-06-08T12:13:13.263Z,7.52
2023-06-08T12:14:13.160Z,35.16
2023-06-08T12:15:13.035Z,32.24
2023-06-08T12:16:13.393Z,30.40
2023-06-08T12:17:13.352Z,26.28
2023-06-08T12:18:13.340Z,18.32
2023-06-08T12:19:13.822Z,20.08
2023-06-08T12:20:13.656Z,12.48
2023-06-08T12:21:13.509Z,11.60
2023-06-08T12:22:13.355Z,10.60
2023-06-08T12:23:19.868Z,15.44
2023-06-08T12:24:12.949Z,6.12
2023-06-08T12:25:12.973Z,22.84
2023-06-08T12:26:23.433Z,11.81
2023-06-08T12:27:13.510Z,11.04
2023-06-08T12:28:13.709Z,6.28
2023-06-08T12:29:13.706Z,15.12
2023-06-08T12:30:18.865Z,30.68
2023-06-08T12:31:14.155Z,15.72
2023-06-08T12:32:13.618Z,21.55
2023-06-08T12:34:23.480Z,17.92
2023-06-08T12:35:13.306Z,13.36
2023-06-08T12:36:13.359Z,30.40
2023-06-08T12:37:13.350Z,22.84
2023-06-08T12:38:13.249Z,11.56
2023-06-08T12:39:13.326Z,10.88
2023-06-08T12:40:13.364Z,12.56
2023-06-08T12:41:13.386Z,12.72
2023-06-08T12:42:13.262Z,13.72
2023-06-08T12:43:13.419Z,10.76
2023-06-08T12:44:13.687Z,33.12
2023-06-08T12:45:13.609Z,17.08
2023-06-08T12:46:13.355Z,44.00
2023-06-08T12:47:13.267Z,44.68
2023-06-08T12:48:13.353Z,32.68
2023-06-08T12:49:13.298Z,45.32
2023-06-08T12:50:13.128Z,45.84
2023-06-08T12:51:13.525Z,32.88
2023-06-08T12:52:13.350Z,31.92
2023-06-08T12:53:18.393Z,16.16
2023-06-08T12:54:13.678Z,35.52
2023-06-08T12:55:13.583Z,21.28
2023-06-08T12:56:19.857Z,38.00
2023-06-08T12:57:13.797Z,35.28
2023-06-08T12:58:13.805Z,32.28
2023-06-08T12:59:13.819Z,22.48
2023-06-08T13:00:14.017Z,23.04
2023-06-08T13:01:12.865Z,25.73
2023-06-08T13:02:12.766Z,36.12
2023-06-08T13:03:13.828Z,32.76
2023-06-08T13:04:12.769Z,31.80
2023-06-08T13:05:13.968Z,30.04
2023-06-08T13:06:12.931Z,29.88
2023-06-08T13:07:13.102Z,21.92
2023-06-08T13:08:12.913Z,33.16
2023-06-08T13:09:13.008Z,19.08
2023-06-08T13:10:13.423Z,20.08
2023-06-08T13:11:13.508Z,44.44
2023-06-08T13:12:13.656Z,27.40
2023-06-08T13:13:13.519Z,26.00
2023-06-08T13:14:13.432Z,50.16